Time;durP1;ratioP1;P1;durP2;ratioP2;P2;SDS_P1;SDS_P2;PMS_P1;PMS_P2;Temp;Humidity;BMP_temperature;BMP_pressure;BME280_temperature;BME280_humidity;BME280_pressure;Samples;Min_cycle;Max_cycle;Signal;HPM_P1;HPM_P2
2022/04/18 00:01:41;;;;;;;;;;;18.50;59.90;;;;;;5038344;28;1212;-70
2022/04/18 00:04:07;;;;;;;;;;;18.50;59.90;;;;;;5038702;28;1089;-69
2022/04/18 00:06:35;;;;;;;;;;;18.50;59.90;;;;;;5020338;28;1300;-69
2022/04/18 00:09:01;;;;;;;;;;;18.50;60.00;;;;;;5038586;28;883;-70
2022/04/18 00:11:26;;;;;;;;;;;18.50;59.90;;;;;;5035963;28;1271;-69
2022/04/18 00:13:51;;;;;;;;;;;18.50;60.00;;;;;;5035290;28;1898;-69
2022/04/18 00:16:17;;;;;;;;;;;18.50;60.00;;;;;;5049088;28;1218;-69
2022/04/18 00:18:42;;;;;;;;;;;18.50;60.00;;;;;;5037896;28;1126;-69
2022/04/18 00:21:08;;;;;;;;;;;18.50;60.00;;;;;;5035131;28;1219;-69
2022/04/18 00:23:33;;;;;;;;;;;18.50;60.00;;;;;;5034083;28;867;-69
2022/04/18 00:25:59;;;;;;;;;;;18.50;60.00;;;;;;5017440;28;1516;-69
2022/04/18 00:28:24;;;;;;;;;;;18.50;60.00;;;;;;5035210;28;863;-69
2022/04/18 00:30:50;;;;;;;;;;;18.50;60.00;;;;;;5034911;28;872;-70
2022/04/18 00:33:15;;;;;;;;;;;18.50;60.00;;;;;;5035755;28;1980;-70
2022/04/18 00:35:41;;;;;;;;;;;18.50;60.00;;;;;;5033418;28;820;-69
2022/04/18 00:38:06;;;;;;;;;;;18.50;60.00;;;;;;5034055;28;1151;-69
2022/04/18 00:40:32;;;;;;;;;;;18.50;60.00;;;;;;5015263;28;957;-68
2022/04/18 00:43:06;;;;;;;;;;;18.50;60.00;;;;;;5019058;28;2758;-69
2022/04/18 00:45:32;;;;;;;;;;;18.50;60.10;;;;;;5013988;28;811;-68
2022/04/18 00:47:57;;;;;;;;;;;18.50;60.10;;;;;;5015183;28;946;-70
2022/04/18 00:50:23;;;;;;;;;;;18.50;60.10;;;;;;5015109;28;2207;-69
2022/04/18 00:52:49;;;;;;;;;;;18.40;60.10;;;;;;5029515;28;1273;-69
2022/04/18 00:55:14;;;;;;;;;;;18.50;60.10;;;;;;5033675;28;1957;-69
2022/04/18 00:57:40;;;;;;;;;;;18.50;60.10;;;;;;5034695;28;894;-69
2022/04/18 01:00:06;;;;;;;;;;;18.50;60.10;;;;;;5033824;28;782;-69
2022/04/18 01:02:32;;;;;;;;;;;18.50;60.10;;;;;;5034702;28;1306;-69
2022/04/18 01:04:57;;;;;;;;;;;18.50;60.10;;;;;;5034897;28;888;-69
2022/04/18 01:07:22;;;;;;;;;;;18.40;60.10;;;;;;5034576;28;1022;-68
2022/04/18 01:09:48;;;;;;;;;;;18.50;60.10;;;;;;5033638;28;938;-69
2022/04/18 01:12:13;;;;;;;;;;;18.40;60.10;;;;;;5033441;28;1255;-69
2022/04/18 01:14:45;;;;;;;;;;;18.40;60.10;;;;;;5034700;28;1906;-69
2022/04/18 01:17:10;;;;;;;;;;;18.40;60.10;;;;;;5012950;28;1331;-69
2022/04/18 01:19:36;;;;;;;;;;;18.40;60.10;;;;;;5029992;28;876;-69
2022/04/18 01:22:01;;;;;;;;;;;18.40;60.10;;;;;;5029837;28;1197;-69
2022/04/18 01:29:57;;;;;;;;;;;18.40;60.20;;;;;;5014591;28;606;-69
2022/04/18 01:32:23;;;;;;;;;;;18.40;60.20;;;;;;5014510;28;1193;-69
2022/04/18 01:34:48;;;;;;;;;;;18.40;60.20;;;;;;5014524;28;1902;-69
2022/04/18 01:37:14;;;;;;;;;;;18.40;60.20;;;;;;5024530;28;1100;-69
2022/04/18 01:39:39;;;;;;;;;;;18.40;60.20;;;;;;5034255;28;807;-69
2022/04/18 01:42:05;;;;;;;;;;;18.40;60.20;;;;;;5033994;28;1211;-69
2022/04/18 01:44:30;;;;;;;;;;;18.40;60.20;;;;;;5033934;28;834;-67
2022/04/18 01:46:55;;;;;;;;;;;18.40;60.20;;;;;;5033646;28;694;-68
2022/04/18 01:49:21;;;;;;;;;;;18.40;60.20;;;;;;5034012;28;757;-68
2022/04/18 01:51:46;;;;;;;;;;;18.40;60.20;;;;;;5032538;28;1212;-68
2022/04/18 01:54:12;;;;;;;;;;;18.40;60.20;;;;;;5033862;28;1902;-69
2022/04/18 01:56:37;;;;;;;;;;;18.40;60.20;;;;;;5014587;28;2188;-68
2022/04/18 01:59:03;;;;;;;;;;;18.40;60.30;;;;;;5029303;28;2022;-68
2022/04/18 02:01:28;;;;;;;;;;;18.40;60.30;;;;;;5028534;28;1899;-68
2022/04/18 02:03:53;;;;;;;;;;;18.40;60.30;;;;;;5027083;28;1897;-68
2022/04/18 02:06:19;;;;;;;;;;;18.40;60.30;;;;;;5025708;28;1251;-68
2022/04/18 02:08:44;;;;;;;;;;;18.40;60.20;;;;;;5028173;28;1434;-69
2022/04/18 02:11:10;;;;;;;;;;;18.40;60.20;;;;;;5029159;28;2170;-68
2022/04/18 02:13:35;;;;;;;;;;;18.40;60.30;;;;;;5028060;28;1972;-69
2022/04/18 02:16:01;;;;;;;;;;;18.40;60.30;;;;;;5026722;28;1263;-68
2022/04/18 02:18:27;;;;;;;;;;;18.40;60.20;;;;;;5024075;28;1261;-66
2022/04/18 02:20:52;;;;;;;;;;;18.40;60.20;;;;;;5021168;28;1311;-67
2022/04/18 02:23:18;;;;;;;;;;;18.40;60.20;;;;;;5022994;28;1456;-67
2022/04/18 02:25:43;;;;;;;;;;;18.50;60.20;;;;;;5022606;28;1327;-67
2022/04/18 02:28:08;;;;;;;;;;;18.50;60.10;;;;;;5020876;28;1331;-68
2022/04/18 02:30:34;;;;;;;;;;;18.50;60.00;;;;;;5024962;28;1306;-69
2022/04/18 02:32:59;;;;;;;;;;;18.50;60.00;;;;;;5023287;28;1338;-68
2022/04/18 02:35:25;;;;;;;;;;;18.40;59.90;;;;;;5021094;28;1956;-67
2022/04/18 02:37:50;;;;;;;;;;;18.50;59.90;;;;;;5024090;28;1216;-66
2022/04/18 02:40:16;;;;;;;;;;;18.50;59.90;;;;;;5022815;28;1217;-67
2022/04/18 02:42:42;;;;;;;;;;;18.50;59.90;;;;;;5020742;28;1289;-66
2022/04/18 02:45:11;;;;;;;;;;;18.50;59.80;;;;;;5023869;28;1256;-69
2022/04/18 02:47:36;;;;;;;;;;;18.50;59.80;;;;;;5022551;28;1149;-68
2022/04/18 02:50:02;;;;;;;;;;;18.50;59.80;;;;;;5021873;28;1239;-67
2022/04/18 02:52:27;;;;;;;;;;;18.50;59.80;;;;;;5020399;28;1221;-66
2022/04/18 02:54:53;;;;;;;;;;;18.50;59.80;;;;;;5024746;28;1958;-68
2022/04/18 02:57:18;;;;;;;;;;;18.50;59.80;;;;;;5022021;28;1259;-69
2022/04/18 02:59:44;;;;;;;;;;;18.50;59.80;;;;;;5029328;28;1300;-67
2022/04/18 03:02:09;;;;;;;;;;;18.50;59.80;;;;;;5033078;28;1177;-67
2022/04/18 03:04:35;;;;;;;;;;;18.50;59.80;;;;;;5033126;28;903;-68
2022/04/18 03:07:03;;;;;;;;;;;18.60;59.80;;;;;;5032572;28;831;-67
2022/04/18 03:09:28;;;;;;;;;;;18.50;59.80;;;;;;5032845;28;899;-68
2022/04/18 03:11:54;;;;;;;;;;;18.60;59.80;;;;;;5032609;28;1198;-68
2022/04/18 03:14:19;;;;;;;;;;;18.60;59.80;;;;;;5032855;28;1910;-68
2022/04/18 03:16:45;;;;;;;;;;;18.50;59.70;;;;;;5047589;28;1325;-67
2022/04/18 03:19:10;;;;;;;;;;;18.60;59.80;;;;;;5033208;28;765;-68
2022/04/18 03:21:36;;;;;;;;;;;18.60;59.80;;;;;;5033156;28;1208;-68
2022/04/18 03:24:01;;;;;;;;;;;18.60;59.80;;;;;;5031570;28;704;-68
2022/04/18 03:26:27;;;;;;;;;;;18.60;59.80;;;;;;5032493;28;693;-67
2022/04/18 03:28:52;;;;;;;;;;;18.60;59.80;;;;;;5032761;28;698;-68
2022/04/18 03:31:17;;;;;;;;;;;18.60;59.80;;;;;;5032637;28;1197;-68
2022/04/18 03:33:43;;;;;;;;;;;18.60;59.80;;;;;;5032642;28;1926;-68
2022/04/18 03:41:36;;;;;;;;;;;18.60;59.80;;;;;;5032636;28;1257;-68
2022/04/18 03:44:02;;;;;;;;;;;18.60;59.80;;;;;;5032717;28;713;-68
2022/04/18 03:46:27;;;;;;;;;;;18.50;59.70;;;;;;5034186;28;698;-68
2022/04/18 03:48:53;;;;;;;;;;;18.60;59.80;;;;;;5035258;28;681;-68
2022/04/18 03:51:18;;;;;;;;;;;18.50;59.80;;;;;;5035921;28;1286;-68
2022/04/18 03:53:43;;;;;;;;;;;18.50;59.80;;;;;;5036210;28;1959;-68
2022/04/18 03:56:09;;;;;;;;;;;18.50;59.80;;;;;;5035938;28;827;-67
2022/04/18 03:58:34;;;;;;;;;;;18.50;59.80;;;;;;5036298;28;898;-66
2022/04/18 04:01:00;;;;;;;;;;;18.50;59.80;;;;;;5034882;28;800;-67
2022/04/18 04:03:26;;;;;;;;;;;18.60;59.90;;;;;;5035911;28;1224;-67
2022/04/18 04:05:53;;;;;;;;;;;18.50;59.80;;;;;;5035757;28;846;-67
2022/04/18 04:08:22;;;;;;;;;;;18.50;59.80;;;;;;5036023;28;902;-67
2022/04/18 04:10:49;;;;;;;;;;;18.50;59.80;;;;;;5035989;28;816;-67
2022/04/18 04:13:14;;;;;;;;;;;18.50;59.80;;;;;;5035735;28;1200;-67
2022/04/18 04:15:40;;;;;;;;;;;18.50;59.90;;;;;;5044012;28;1914;-67
2022/04/18 04:18:05;;;;;;;;;;;18.50;59.80;;;;;;5042111;28;1203;-67
2022/04/18 04:20:31;;;;;;;;;;;18.50;59.80;;;;;;5035614;28;878;-67
2022/04/18 04:22:56;;;;;;;;;;;18.50;59.80;;;;;;5035553;28;1300;-68
2022/04/18 04:25:21;;;;;;;;;;;18.50;59.80;;;;;;5035874;28;922;-67
2022/04/18 04:27:47;;;;;;;;;;;18.50;59.80;;;;;;5035465;28;1013;-67
2022/04/18 04:30:12;;;;;;;;;;;18.50;59.90;;;;;;5035931;28;847;-68
2022/04/18 04:32:38;;;;;;;;;;;18.50;59.90;;;;;;5034387;28;1229;-67
2022/04/18 04:35:03;;;;;;;;;;;18.50;59.90;;;;;;5035368;28;1894;-67
2022/04/18 04:37:29;;;;;;;;;;;18.50;59.90;;;;;;5034955;28;1143;-68
2022/04/18 04:39:54;;;;;;;;;;;18.50;59.90;;;;;;5035373;28;1025;-67
2022/04/18 04:42:20;;;;;;;;;;;18.50;59.90;;;;;;5035216;28;1199;-67
2022/04/18 04:44:45;;;;;;;;;;;18.50;59.80;;;;;;5035396;28;873;-67
2022/04/18 04:47:11;;;;;;;;;;;18.50;59.80;;;;;;5033750;28;733;-67
2022/04/18 04:49:36;;;;;;;;;;;18.50;59.80;;;;;;5035267;28;816;-67
2022/04/18 04:52:04;;;;;;;;;;;18.60;59.80;;;;;;5033807;28;1241;-67
2022/04/18 04:54:29;;;;;;;;;;;18.60;59.80;;;;;;5035222;28;1962;-68
2022/04/18 04:56:54;;;;;;;;;;;18.60;59.70;;;;;;5034683;28;1109;-66
2022/04/18 04:59:20;;;;;;;;;;;18.60;59.60;;;;;;5034523;28;761;-68
2022/04/18 05:01:45;;;;;;;;;;;18.60;59.50;;;;;;5034916;28;1224;-68
2022/04/18 05:04:11;;;;;;;;;;;18.70;59.50;;;;;;5033719;28;727;-68
2022/04/18 05:06:36;;;;;;;;;;;18.70;59.40;;;;;;5034561;28;867;-69
2022/04/18 05:09:02;;;;;;;;;;;18.70;59.40;;;;;;5034825;28;804;-69
2022/04/18 05:11:27;;;;;;;;;;;18.70;59.40;;;;;;5033585;28;1203;-69
2022/04/18 05:13:52;;;;;;;;;;;18.70;59.30;;;;;;5034836;28;1962;-69
2022/04/18 05:16:18;;;;;;;;;;;18.70;59.20;;;;;;5047132;28;1180;-70
2022/04/18 05:18:43;;;;;;;;;;;18.70;59.20;;;;;;5037207;28;1146;-69
2022/04/18 05:21:10;;;;;;;;;;;18.70;59.20;;;;;;5034342;28;1302;-69
2022/04/18 05:23:36;;;;;;;;;;;18.80;59.20;;;;;;5033473;28;1327;-69
2022/04/18 05:26:01;;;;;;;;;;;18.80;59.20;;;;;;5034447;28;1017;-69
2022/04/18 05:28:26;;;;;;;;;;;18.80;59.10;;;;;;5034672;28;946;-69
2022/04/18 05:30:52;;;;;;;;;;;18.80;59.10;;;;;;5033268;28;1140;-69
2022/04/18 05:33:18;;;;;;;;;;;18.80;59.10;;;;;;5034424;28;1181;-69
2022/04/18 05:35:43;;;;;;;;;;;18.80;59.10;;;;;;5034171;28;1979;-69
2022/04/18 05:38:09;;;;;;;;;;;18.80;59.00;;;;;;5034210;28;1159;-69
2022/04/18 05:40:34;;;;;;;;;;;18.80;59.00;;;;;;5034149;28;759;-69
2022/04/18 05:43:02;;;;;;;;;;;18.80;59.00;;;;;;5034398;28;1235;-69
2022/04/18 05:45:28;;;;;;;;;;;18.80;59.00;;;;;;5034027;28;1025;-70
2022/04/18 05:47:53;;;;;;;;;;;18.80;58.90;;;;;;5032792;28;1106;-69
2022/04/18 05:50:19;;;;;;;;;;;18.80;59.50;;;;;;5031949;28;2225;-68
2022/04/18 05:52:46;;;;;;;;;;;18.90;58.90;;;;;;5031715;28;2024;-68
2022/04/18 05:55:11;;;;;;;;;;;18.80;58.90;;;;;;5031906;28;1965;-68
2022/04/18 05:57:37;;;;;;;;;;;18.80;58.90;;;;;;5033644;28;711;-68
2022/04/18 06:00:03;;;;;;;;;;;18.90;58.90;;;;;;5033879;28;862;-70
2022/04/18 06:02:28;;;;;;;;;;;18.90;58.90;;;;;;5042903;28;1501;-69
2022/04/18 06:04:54;;;;;;;;;;;18.90;58.90;;;;;;5045763;28;1077;-68
2022/04/18 06:07:19;;;;;;;;;;;18.90;58.90;;;;;;5049302;28;1457;-66
2022/04/18 06:09:45;;;;;;;;;;;18.90;58.90;;;;;;5044527;28;1143;-67
2022/04/18 06:12:10;;;;;;;;;;;18.90;58.90;;;;;;5053480;28;1221;-64
2022/04/18 06:14:35;;;;;;;;;;;18.90;58.90;;;;;;5053410;28;1994;-66
2022/04/18 06:17:01;;;;;;;;;;;18.90;58.90;;;;;;5033479;28;1665;-65
2022/04/18 06:19:26;;;;;;;;;;;18.90;58.80;;;;;;5033190;28;642;-65
2022/04/18 06:21:52;;;;;;;;;;;18.90;58.80;;;;;;5033449;28;1298;-66
2022/04/18 06:24:18;;;;;;;;;;;18.90;58.80;;;;;;5033485;28;1000;-65
2022/04/18 06:26:43;;;;;;;;;;;18.90;58.80;;;;;;5033412;28;804;-66
2022/04/18 06:29:09;;;;;;;;;;;18.90;58.80;;;;;;5033217;28;894;-66
2022/04/18 06:31:34;;;;;;;;;;;18.90;58.80;;;;;;5041319;28;1271;-65
2022/04/18 06:34:00;;;;;;;;;;;18.90;58.80;;;;;;5047771;28;1918;-69
2022/04/18 06:36:25;;;;;;;;;;;18.90;58.80;;;;;;5049414;28;1103;-70
2022/04/18 06:38:51;;;;;;;;;;;18.90;58.80;;;;;;5033251;28;844;-68
2022/04/18 06:41:16;;;;;;;;;;;18.90;58.80;;;;;;5026306;28;2273;-67
2022/04/18 06:43:41;;;;;;;;;;;18.90;58.80;;;;;;5033176;28;1107;-67
2022/04/18 06:46:07;;;;;;;;;;;18.90;58.70;;;;;;5040416;28;1063;-66
2022/04/18 06:48:32;;;;;;;;;;;18.90;58.70;;;;;;5041709;28;1357;-66
2022/04/18 06:50:58;;;;;;;;;;;18.90;58.70;;;;;;5032967;28;815;-67
2022/04/18 06:53:24;;;;;;;;;;;18.90;58.70;;;;;;5031761;28;1303;-67
2022/04/18 06:58:33;;;;;;;;;;;18.90;58.70;;;;;;5044539;28;1162;-65
2022/04/18 07:00:59;;;;;;;;;;;18.90;58.70;;;;;;5051342;28;872;-67
2022/04/18 07:03:26;;;;;;;;;;;19.00;58.70;;;;;;5041647;28;2118;-68
2022/04/18 07:05:51;;;;;;;;;;;19.10;58.60;;;;;;5031352;28;1246;-68
2022/04/18 07:08:16;;;;;;;;;;;19.10;58.40;;;;;;5032263;28;1060;-69
2022/04/18 07:10:42;;;;;;;;;;;19.20;58.40;;;;;;5032686;28;894;-68
2022/04/18 07:13:07;;;;;;;;;;;19.30;58.20;;;;;;5032873;28;1197;-68
2022/04/18 07:15:33;;;;;;;;;;;19.40;58.10;;;;;;5036707;28;1905;-69
2022/04/18 07:17:59;;;;;;;;;;;19.50;57.90;;;;;;5032794;28;1099;-68
2022/04/18 07:20:25;;;;;;;;;;;19.60;57.70;;;;;;5032969;28;836;-68
2022/04/18 07:22:50;;;;;;;;;;;19.60;57.60;;;;;;5036846;28;1200;-67
2022/04/18 07:25:16;;;;;;;;;;;19.80;57.40;;;;;;5036779;28;902;-67
2022/04/18 07:27:41;;;;;;;;;;;19.90;57.20;;;;;;5036505;28;1021;-67
2022/04/18 07:30:07;;;;;;;;;;;19.90;57.00;;;;;;5044021;28;1095;-67
2022/04/18 07:32:37;;;;;;;;;;;20.00;56.80;;;;;;5047979;28;1275;-68
2022/04/18 07:35:03;;;;;;;;;;;20.00;56.60;;;;;;5056689;28;1905;-70
2022/04/18 07:37:28;;;;;;;;;;;20.10;56.50;;;;;;5042748;28;1299;-69
2022/04/18 07:39:53;;;;;;;;;;;20.20;56.40;;;;;;5036513;28;918;-70
2022/04/18 07:42:19;;;;;;;;;;;20.20;56.20;;;;;;5036331;28;1206;-69
2022/04/18 07:44:45;;;;;;;;;;;20.30;56.10;;;;;;5036403;28;795;-69
2022/04/18 07:47:10;;;;;;;;;;;20.30;56.00;;;;;;5034859;28;820;-67
2022/04/18 07:49:35;;;;;;;;;;;20.40;55.90;;;;;;5018831;28;934;-67
2022/04/18 07:52:01;;;;;;;;;;;20.40;55.80;;;;;;5036234;28;1276;-68
2022/04/18 07:54:26;;;;;;;;;;;20.40;55.70;;;;;;5036214;28;1899;-68
2022/04/18 07:56:52;;;;;;;;;;;20.50;55.70;;;;;;5035941;28;1006;-68
2022/04/18 07:59:18;;;;;;;;;;;20.50;55.60;;;;;;5036126;28;856;-67
2022/04/18 08:01:43;;;;;;;;;;;20.50;55.50;;;;;;5034982;28;1605;-68
2022/04/18 08:04:09;;;;;;;;;;;20.60;55.50;;;;;;5035076;28;832;-68
2022/04/18 08:06:34;;;;;;;;;;;20.60;55.50;;;;;;5035757;28;942;-68
2022/04/18 08:09:00;;;;;;;;;;;20.60;55.50;;;;;;5034919;28;823;-68
2022/04/18 08:11:25;;;;;;;;;;;20.60;55.50;;;;;;5043889;28;1286;-67
2022/04/18 08:13:51;;;;;;;;;;;20.70;55.50;;;;;;5048031;28;1902;-67
2022/04/18 08:16:16;;;;;;;;;;;20.70;55.50;;;;;;5041987;28;1225;-68
2022/04/18 08:18:44;;;;;;;;;;;20.70;55.50;;;;;;5035811;28;1163;-66
2022/04/18 08:21:14;;;;;;;;;;;20.70;55.50;;;;;;5035750;28;1205;-68
2022/04/18 08:23:40;;;;;;;;;;;20.70;55.50;;;;;;5034451;28;902;-68
2022/04/18 08:26:05;;;;;;;;;;;20.70;55.50;;;;;;5035612;28;792;-69
2022/04/18 08:28:31;;;;;;;;;;;20.70;55.50;;;;;;5035464;28;886;-68
2022/04/18 08:30:56;;;;;;;;;;;20.70;55.50;;;;;;5034470;28;907;-68
2022/04/18 08:33:22;;;;;;;;;;;20.70;55.50;;;;;;5034277;28;1331;-68
2022/04/18 08:35:47;;;;;;;;;;;20.60;55.40;;;;;;5034057;28;1894;-68
2022/04/18 08:38:13;;;;;;;;;;;20.60;55.50;;;;;;5034138;28;1172;-69
2022/04/18 08:40:40;;;;;;;;;;;20.60;55.50;;;;;;5034162;28;1022;-68
2022/04/18 08:43:06;;;;;;;;;;;20.60;55.50;;;;;;5035140;28;1290;-68
2022/04/18 08:45:31;;;;;;;;;;;20.60;55.60;;;;;;5035136;28;773;-68
2022/04/18 08:53:26;;;;;;;;;;;20.50;55.70;;;;;;5034931;28;1232;-67
2022/04/18 08:55:51;;;;;;;;;;;20.50;55.80;;;;;;5035014;28;1966;-67
2022/04/18 08:58:17;;;;;;;;;;;20.50;55.80;;;;;;5035061;28;899;-69
2022/04/18 09:00:42;;;;;;;;;;;20.50;55.90;;;;;;5035026;28;796;-68
2022/04/18 09:03:08;;;;;;;;;;;20.40;56.60;;;;;;5034867;28;1248;-65
2022/04/18 09:05:36;;;;;;;;;;;20.40;56.00;;;;;;5016396;28;1264;-66
2022/04/18 09:08:03;;;;;;;;;;;20.40;56.10;;;;;;5021949;28;1549;-67
2022/04/18 09:10:28;;;;;;;;;;;20.40;56.20;;;;;;5023578;28;1342;-67
2022/04/18 09:12:59;;;;;;;;;;;20.30;56.30;;;;;;5024161;28;1296;-69
2022/04/18 09:15:46;;;;;;;;;;;20.30;56.30;;;;;;5025627;28;1964;-69
2022/04/18 09:18:18;;;;;;;;;;;20.20;56.40;;;;;;5023828;28;1311;-69
2022/04/18 09:20:50;;;;;;;;;;;20.20;56.50;;;;;;5024050;28;1164;-70
2022/04/18 09:23:28;;;;;;;;;;;20.20;56.60;;;;;;5024655;28;1337;-67
2022/04/18 09:26:04;;;;;;;;;;;20.20;56.70;;;;;;5034391;28;851;-67
2022/04/18 09:28:30;;;;;;;;;;;20.10;56.70;;;;;;5034407;28;878;-68
2022/04/18 09:30:57;;;;;;;;;;;20.10;56.80;;;;;;5034585;28;883;-68
2022/04/18 09:33:22;;;;;;;;;;;20.10;56.90;;;;;;5031997;28;1259;-68
2022/04/18 09:35:48;;;;;;;;;;;20.00;56.90;;;;;;5045318;28;1902;-68
2022/04/18 09:38:16;;;;;;;;;;;20.00;57.00;;;;;;5035815;28;1154;-68
2022/04/18 09:40:41;;;;;;;;;;;20.00;57.00;;;;;;5032979;28;765;-68
2022/04/18 09:43:06;;;;;;;;;;;20.00;57.10;;;;;;5034575;28;1180;-68
2022/04/18 09:45:32;;;;;;;;;;;20.00;57.20;;;;;;5033423;28;792;-68
2022/04/18 09:47:58;;;;;;;;;;;19.90;57.20;;;;;;5034192;28;764;-68
2022/04/18 09:53:15;;;;;;;;;;;19.90;57.30;;;;;;5034031;28;1237;-68
2022/04/18 09:55:43;;;;;;;;;;;19.90;57.40;;;;;;5033599;28;1960;-68
2022/04/18 09:58:09;;;;;;;;;;;19.90;57.40;;;;;;5033739;28;1038;-68
2022/04/18 10:00:34;;;;;;;;;;;19.90;57.50;;;;;;5032419;28;1021;-68
2022/04/18 10:02:59;;;;;;;;;;;19.80;57.50;;;;;;5032424;28;1247;-68
2022/04/18 10:05:25;;;;;;;;;;;19.80;57.60;;;;;;5032462;28;788;-68
2022/04/18 10:07:50;;;;;;;;;;;19.80;57.60;;;;;;5033452;28;846;-69
2022/04/18 10:10:16;;;;;;;;;;;19.80;57.70;;;;;;5032563;28;891;-69
2022/04/18 10:12:41;;;;;;;;;;;19.70;57.70;;;;;;5033798;28;1201;-69
2022/04/18 10:15:07;;;;;;;;;;;19.70;57.70;;;;;;5037409;28;1898;-69
2022/04/18 10:17:32;;;;;;;;;;;19.70;57.80;;;;;;5045510;28;1110;-68
2022/04/18 10:20:07;;;;;;;;;;;19.70;57.80;;;;;;5033593;28;1080;-68
2022/04/18 10:22:42;;;;;;;;;;;19.70;57.90;;;;;;5033458;28;1221;-68
2022/04/18 10:25:26;;;;;;;;;;;19.60;57.90;;;;;;5033334;28;998;-68
2022/04/18 10:27:55;;;;;;;;;;;19.60;57.90;;;;;;5033079;28;1022;-68
2022/04/18 10:30:21;;;;;;;;;;;19.60;58.00;;;;;;5032179;28;796;-68
2022/04/18 10:32:46;;;;;;;;;;;19.60;58.00;;;;;;5033319;28;1271;-68
2022/04/18 10:35:13;;;;;;;;;;;19.60;58.10;;;;;;5031929;28;1975;-68
2022/04/18 10:37:40;;;;;;;;;;;19.60;58.20;;;;;;5032608;28;1178;-69
2022/04/18 10:40:06;;;;;;;;;;;19.50;58.10;;;;;;5031983;28;793;-68
2022/04/18 10:42:34;;;;;;;;;;;19.50;58.20;;;;;;5033474;28;1289;-68
2022/04/18 10:45:09;;;;;;;;;;;19.50;58.20;;;;;;5033179;28;811;-69
2022/04/18 10:47:54;;;;;;;;;;;19.50;58.20;;;;;;5032750;28;1021;-69
2022/04/18 10:50:20;;;;;;;;;;;19.50;58.30;;;;;;5027944;28;2171;-68
2022/04/18 10:53:04;;;;;;;;;;;19.50;58.30;;;;;;5032862;28;1221;-69
2022/04/18 10:55:30;;;;;;;;;;;19.40;58.30;;;;;;5032074;28;1894;-68
2022/04/18 10:58:08;;;;;;;;;;;19.40;58.40;;;;;;5032869;28;1146;-69
2022/04/18 11:00:46;;;;;;;;;;;19.40;58.40;;;;;;5031733;28;1057;-68
2022/04/18 11:03:12;;;;;;;;;;;19.40;58.50;;;;;;5031830;28;1267;-68
2022/04/18 11:05:38;;;;;;;;;;;19.40;58.50;;;;;;5031828;28;1095;-69
2022/04/18 11:08:10;;;;;;;;;;;19.40;58.50;;;;;;5032170;28;822;-69
2022/04/18 11:10:37;;;;;;;;;;;19.40;58.60;;;;;;5047302;28;939;-68
2022/04/18 11:13:03;;;;;;;;;;;19.40;58.60;;;;;;5032275;28;1210;-69
2022/04/18 11:15:28;;;;;;;;;;;19.40;58.60;;;;;;5029559;28;2844;-68
2022/04/18 11:17:53;;;;;;;;;;;19.30;58.60;;;;;;5028716;28;1832;-68
2022/04/18 11:20:32;;;;;;;;;;;19.30;58.60;;;;;;5028882;28;1879;-68
2022/04/18 11:23:16;;;;;;;;;;;19.30;58.60;;;;;;5029496;28;1287;-68
2022/04/18 11:25:54;;;;;;;;;;;19.30;58.70;;;;;;5026869;28;1994;-68
2022/04/18 11:28:20;;;;;;;;;;;19.30;58.70;;;;;;5028372;28;1817;-68
2022/04/18 11:30:45;;;;;;;;;;;19.20;58.70;;;;;;5031916;28;1589;-68
2022/04/18 11:33:10;;;;;;;;;;;19.20;58.80;;;;;;5030995;28;1962;-68
2022/04/18 11:35:36;;;;;;;;;;;19.20;58.80;;;;;;5023827;28;1957;-68
2022/04/18 11:38:08;;;;;;;;;;;19.20;58.80;;;;;;5027922;28;2108;-68
2022/04/18 11:40:36;;;;;;;;;;;19.20;58.90;;;;;;5039898;28;1343;-69
2022/04/18 11:43:09;;;;;;;;;;;19.20;58.90;;;;;;5030359;28;1189;-69
2022/04/18 11:45:34;;;;;;;;;;;19.20;58.90;;;;;;5031684;28;863;-68
2022/04/18 11:48:01;;;;;;;;;;;19.20;59.00;;;;;;5035612;28;1212;-68
2022/04/18 11:50:27;;;;;;;;;;;19.20;59.00;;;;;;5027051;28;1021;-68
2022/04/18 11:53:02;;;;;;;;;;;19.20;59.00;;;;;;5025011;28;1274;-68
2022/04/18 11:55:27;;;;;;;;;;;19.20;59.00;;;;;;5018408;28;1906;-68
2022/04/18 11:57:53;;;;;;;;;;;19.20;59.10;;;;;;5024094;28;1232;-68
2022/04/18 12:08:32;;;;;;;;;;;19.10;59.10;;;;;;5022860;28;1296;-69
2022/04/18 12:10:57;;;;;;;;;;;19.10;59.10;;;;;;5027897;28;1451;-69
2022/04/18 12:13:23;;;;;;;;;;;19.10;59.10;;;;;;5025525;28;1417;-69
2022/04/18 12:15:49;;;;;;;;;;;19.10;59.10;;;;;;5043476;28;1989;-69
2022/04/18 12:18:15;;;;;;;;;;;19.10;59.20;;;;;;5042081;28;1122;-69
2022/04/18 12:20:44;;;;;;;;;;;19.10;59.20;;;;;;5034333;28;781;-69
2022/04/18 12:23:13;;;;;;;;;;;19.00;59.10;;;;;;5034116;28;1298;-69
2022/04/18 12:25:42;;;;;;;;;;;19.10;59.20;;;;;;5035260;28;1076;-69
2022/04/18 12:28:07;;;;;;;;;;;19.00;59.20;;;;;;5035169;28;882;-69
2022/04/18 12:30:32;;;;;;;;;;;19.00;59.20;;;;;;5034027;28;891;-69
2022/04/18 12:33:14;;;;;;;;;;;19.00;59.20;;;;;;5033841;28;1307;-69
2022/04/18 12:35:43;;;;;;;;;;;19.00;59.20;;;;;;5035007;28;1906;-69
2022/04/18 12:38:11;;;;;;;;;;;19.00;59.30;;;;;;5033843;28;1168;-69
2022/04/18 12:40:37;;;;;;;;;;;19.00;59.30;;;;;;5016453;28;2027;-69
2022/04/18 12:43:06;;;;;;;;;;;19.00;59.30;;;;;;5043154;28;1276;-69
2022/04/18 12:45:41;;;;;;;;;;;19.00;59.30;;;;;;5042137;28;1179;-68
2022/04/18 12:48:07;;;;;;;;;;;19.00;59.30;;;;;;5049559;28;1099;-69
2022/04/18 12:50:33;;;;;;;;;;;19.00;59.30;;;;;;5047914;28;1074;-69
2022/04/18 12:52:59;;;;;;;;;;;19.00;59.40;;;;;;5044972;28;1226;-69
2022/04/18 12:55:27;;;;;;;;;;;18.90;59.30;;;;;;5054510;28;1953;-69
2022/04/18 12:57:53;;;;;;;;;;;18.90;59.30;;;;;;5054677;28;895;-69
2022/04/18 13:00:18;;;;;;;;;;;18.90;59.30;;;;;;5045712;28;1086;-69
2022/04/18 13:03:00;;;;;;;;;;;18.90;59.40;;;;;;5046981;28;1310;-68
2022/04/18 13:05:26;;;;;;;;;;;18.90;59.40;;;;;;5054379;28;854;-69
2022/04/18 13:07:52;;;;;;;;;;;18.90;59.40;;;;;;5053219;28;733;-69
2022/04/18 13:10:25;;;;;;;;;;;18.90;59.40;;;;;;5053204;28;827;-68
2022/04/18 13:12:57;;;;;;;;;;;18.90;59.40;;;;;;5047807;28;1414;-69
2022/04/18 13:15:26;;;;;;;;;;;18.90;59.40;;;;;;5046360;28;1902;-68
2022/04/18 13:17:55;;;;;;;;;;;18.90;59.50;;;;;;5033876;28;1075;-69
2022/04/18 13:20:20;;;;;;;;;;;18.90;59.50;;;;;;5032502;28;958;-68
2022/04/18 13:22:46;;;;;;;;;;;18.90;59.50;;;;;;5034242;28;1212;-68
2022/04/18 13:25:12;;;;;;;;;;;18.90;59.50;;;;;;5029847;28;1795;-68
2022/04/18 13:27:38;;;;;;;;;;;18.90;59.60;;;;;;5032167;28;1990;-70
2022/04/18 13:30:03;;;;;;;;;;;18.90;59.60;;;;;;5028357;28;1264;-69
2022/04/18 13:32:29;;;;;;;;;;;18.80;59.50;;;;;;5034109;28;1251;-70
2022/04/18 13:34:55;;;;;;;;;;;18.90;59.60;;;;;;5033700;28;1957;-70
2022/04/18 13:37:20;;;;;;;;;;;18.90;59.60;;;;;;5032401;28;1103;-70
2022/04/18 13:39:47;;;;;;;;;;;18.80;59.50;;;;;;5033020;28;725;-69
2022/04/18 13:42:13;;;;;;;;;;;18.80;59.50;;;;;;5033870;28;1227;-69
2022/04/18 13:44:39;;;;;;;;;;;18.80;59.60;;;;;;5033787;28;998;-69
2022/04/18 13:47:04;;;;;;;;;;;18.80;59.60;;;;;;5033910;28;1075;-69
2022/04/18 13:49:30;;;;;;;;;;;18.80;59.60;;;;;;5032452;28;867;-69
2022/04/18 13:51:55;;;;;;;;;;;18.80;59.60;;;;;;5032458;28;1280;-70
2022/04/18 13:54:21;;;;;;;;;;;18.80;59.60;;;;;;5033554;28;1894;-69
2022/04/18 13:56:46;;;;;;;;;;;18.80;59.60;;;;;;5034784;28;836;-69
2022/04/18 13:59:12;;;;;;;;;;;18.80;59.50;;;;;;5033448;28;878;-69
2022/04/18 14:01:38;;;;;;;;;;;18.80;59.60;;;;;;5033922;28;1204;-69
2022/04/18 14:04:03;;;;;;;;;;;18.80;59.50;;;;;;5033440;28;839;-69
2022/04/18 14:06:29;;;;;;;;;;;18.80;59.50;;;;;;5033380;28;934;-69
2022/04/18 14:08:55;;;;;;;;;;;18.80;59.50;;;;;;5032053;28;898;-69
2022/04/18 14:11:20;;;;;;;;;;;18.70;59.50;;;;;;5033194;28;1643;-69
2022/04/18 14:13:46;;;;;;;;;;;18.70;59.50;;;;;;5033405;28;838;-69
2022/04/18 14:21:40;;;;;;;;;;;18.70;59.50;;;;;;5033000;28;1257;-70
2022/04/18 14:24:05;;;;;;;;;;;18.70;59.50;;;;;;5033114;28;1076;-70
2022/04/18 14:26:31;;;;;;;;;;;18.70;59.40;;;;;;5032820;28;861;-70
2022/04/18 14:28:58;;;;;;;;;;;18.70;59.40;;;;;;5031685;28;857;-69
2022/04/18 14:31:23;;;;;;;;;;;18.70;59.50;;;;;;5030789;28;1283;-69
2022/04/18 14:33:49;;;;;;;;;;;18.70;59.50;;;;;;5033279;28;1948;-69
2022/04/18 14:36:15;;;;;;;;;;;18.70;59.50;;;;;;5032585;28;1080;-69
2022/04/18 14:38:41;;;;;;;;;;;18.70;59.60;;;;;;5031522;28;1513;-69
2022/04/18 14:41:06;;;;;;;;;;;18.70;59.60;;;;;;5032753;28;1207;-69
2022/04/18 14:43:31;;;;;;;;;;;18.70;59.60;;;;;;5032689;28;878;-69
2022/04/18 14:45:58;;;;;;;;;;;18.70;59.60;;;;;;5032923;28;902;-70
2022/04/18 14:48:23;;;;;;;;;;;18.70;59.60;;;;;;5032910;28;875;-68
2022/04/18 14:50:49;;;;;;;;;;;18.70;59.60;;;;;;5033221;28;871;-69
2022/04/18 14:53:14;;;;;;;;;;;18.70;59.60;;;;;;5031613;28;1217;-70
2022/04/18 14:55:40;;;;;;;;;;;18.70;59.60;;;;;;5032808;28;1946;-70
2022/04/18 14:58:05;;;;;;;;;;;18.70;59.60;;;;;;5031321;28;1014;-70
2022/04/18 15:00:31;;;;;;;;;;;18.70;59.60;;;;;;5033360;28;1029;-70
2022/04/18 15:03:03;;;;;;;;;;;18.70;59.70;;;;;;5032611;28;1307;-69
2022/04/18 15:05:28;;;;;;;;;;;18.70;59.70;;;;;;5029076;28;2167;-69